MXG weather

Marlboro Airport
Marlboro, Massachusetts, United States

Public forecast

Using degrees Fahrenheit for public forecast. Weather courtesy of forecast.io.

METAR (pilot weather report)

Closest report is Laurence G Hanscom Field, 12.4 nm (22.9 km) NE. Retrieved 2019/09/21 17:51 UTC (25 minutes ago):

KBED 211751Z 20004KT 10SM CLR 29/14 A3015 RMK AO2 SLP220 T02890139 10300 20150 56017

TAF (pilot weather forecast)

Closest forecast is Laurence G Hanscom Field, 12.4 nm (22.9 km) NE. Retrieved 2019/09/21 18:22 UTC (0 seconds ago):

TAF KBED 211720Z 2118/2218 21004KT P6SM SKC FM211900 17004KT P6SM SKC FM212300 14004KT P6SM SKC FM220200 17004KT P6SM SKC FM220700 20004KT P6SM SKC